This is the latest recevied weather packets stored in our database for station/object PI1GDA-1. If no packets are shown the sender has not sent any weather packets the latest 1 day(s).
| Time | Temp. | Humidity | Pressure | Rain* | Wind** | Luminosity | Snow |
|---|---|---|---|---|---|---|---|
| 1778003746 | 13.33° C | 73% | 1010.5 hPa | 0 mm | 2.68 m/s, 22° | - | - |
| 1778003146 | 13.89° C | 72% | 1010.6 hPa | 0 mm | 3.13 m/s, 22° | - | - |
| 1778002545 | 13.89° C | 71% | 1010.5 hPa | 0 mm | 2.68 m/s, 22° | - | - |
| 1778001944 | 14.44° C | 70% | 1010.7 hPa | 0 mm | 2.68 m/s, 45° | - | - |
| 1778001341 | 14.44° C | 70% | 1010.6 hPa | 0 mm | 2.68 m/s, 68° | - | - |
| 1778000740 | 14.44° C | 70% | 1010.7 hPa | 0 mm | 3.13 m/s, 45° | - | - |
| 1778000140 | 15° C | 70% | 1010.7 hPa | 0 mm | 2.68 m/s, 45° | - | - |
| 1777999539 | 15° C | 69% | 1010.7 hPa | 0 mm | 2.68 m/s, 45° | - | - |
| 1777998938 | 15° C | 70% | 1010.7 hPa | 0 mm | 2.68 m/s, 45° | - | - |
| 1777998336 | 15° C | 69% | 1010.8 hPa | 0 mm | 3.13 m/s, 45° | - | - |
| 1777997736 | 15.56° C | 68% | 1010.9 hPa | 0 mm | 3.13 m/s, 68° | - | - |
| 1777997136 | 15.56° C | 67% | 1010.9 hPa | 0 mm | 2.68 m/s, 68° | - | - |
| 1777996539 | 15.56° C | 68% | 1010.7 hPa | 0 mm | 2.68 m/s, 90° | - | - |
| 1777995934 | 15.56° C | 68% | 1010.8 hPa | 0 mm | 2.68 m/s, 45° | - | - |
| 1777995333 | 15° C | 68% | 1010.9 hPa | 0 mm | 2.24 m/s, 45° | - | - |
| 1777994732 | 15° C | 71% | 1010.9 hPa | 0 mm | 2.68 m/s, 0° | - | - |
| 1777994131 | 15° C | 68% | 1011 hPa | 0 mm | 2.68 m/s, 68° | - | - |
| 1777993531 | 16.11° C | 65% | 1011 hPa | 0 mm | 2.68 m/s, 45° | - | - |
| 1777992930 | 15.56° C | 67% | 1011 hPa | 0 mm | 3.13 m/s, 338° | - | - |
| 1777992329 | 15.56° C | 68% | 1011 hPa | 0 mm | 2.68 m/s, 45° | - | - |
| 1777991728 | 15.56° C | 68% | 1011.2 hPa | 0 mm | 2.68 m/s, 68° | - | - |
| 1777991127 | 15.56° C | 68% | 1011 hPa | 0 mm | 2.68 m/s, 68° | - | - |
| 1777990526 | 15.56° C | 68% | 1011.1 hPa | 0 mm | 2.68 m/s, 0° | - | - |
| 1777989925 | 15.56° C | 67% | 1011.2 hPa | 0 mm | 2.68 m/s, 45° | - | - |
| 1777989323 | 15° C | 69% | 1011.3 hPa | 0 mm | 2.68 m/s, 45° | - | - |
* Rain latest hour (hover to see other rain measurements)
** Current wind speed in m/s (hover to see current wind gust speed)